Time;durP1;ratioP1;P1;durP2;ratioP2;P2;SDS_P1;SDS_P2;PMS_P1;PMS_P2;Temp;Humidity;BMP_temperature;BMP_pressure;BME280_temperature;BME280_humidity;BME280_pressure;Samples;Min_cycle;Max_cycle;Signal;HPM_P1;HPM_P2
2022/06/22 00:00:21;;;;;;;3.77;1.20;;;;;;;15.29;56.00;98126.98;1697205;83;21881;-63
2022/06/22 00:02:50;;;;;;;1.82;0.88;;;;;;;15.29;56.41;98127.82;1702788;83;21068;-63
2022/06/22 00:05:21;;;;;;;1.77;1.17;;;;;;;15.39;56.50;98122.59;1692279;83;21581;-63
2022/06/22 00:07:54;;;;;;;3.75;0.88;;;;;;;15.47;56.35;98113.98;1675062;83;21585;-64
2022/06/22 00:10:39;;;;;;;3.67;0.93;;;;;;;15.49;56.16;98110.21;1697659;82;21026;-62
2022/06/22 00:13:15;;;;;;;1.90;0.93;;;;;;;15.51;56.02;98102.97;1691849;82;21780;-62
2022/06/22 00:15:52;;;;;;;3.93;1.03;;;;;;;15.50;55.98;98099.98;1705216;83;21470;-63
2022/06/22 00:18:30;;;;;;;6.50;1.55;;;;;;;15.46;56.01;98093.25;1697041;81;21025;-65
2022/06/22 00:21:01;;;;;;;2.02;0.95;;;;;;;15.46;56.00;98081.83;1701516;82;21008;-63
2022/06/22 00:23:40;;;;;;;5.08;1.87;;;;;;;15.43;56.03;98078.98;1699890;83;20937;-64
2022/06/22 00:26:21;;;;;;;1.70;1.10;;;;;;;15.37;56.35;98071.08;1702219;83;21822;-62
2022/06/22 00:29:11;;;;;;;2.17;1.05;;;;;;;15.30;56.63;98067.29;1700305;83;21541;-66
2022/06/22 00:31:44;;;;;;;5.65;1.50;;;;;;;15.24;56.77;98073.59;1692296;82;21508;-65
2022/06/22 00:34:18;;;;;;;3.85;1.10;;;;;;;15.19;56.92;98073.51;1705938;81;21652;-63
2022/06/22 00:37:01;;;;;;;4.45;1.35;;;;;;;15.16;57.59;98071.15;1701315;83;21415;-63
2022/06/22 00:39:34;;;;;;;3.58;1.20;;;;;;;15.24;57.74;98069.62;1656590;83;21525;-64
2022/06/22 00:42:24;;;;;;;3.37;1.10;;;;;;;15.27;57.72;98064.07;1678264;83;21514;-64
2022/06/22 00:45:01;;;;;;;1.07;1.00;;;;;;;15.22;57.83;98068.91;1664212;83;21121;-64
2022/06/22 00:47:35;;;;;;;2.37;0.93;;;;;;;15.08;58.20;98065.66;1667713;84;21014;-66
2022/06/22 00:50:20;;;;;;;2.75;0.70;;;;;;;14.94;58.70;98062.06;1671508;83;21516;-62
2022/06/22 00:53:01;;;;;;;1.80;0.80;;;;;;;14.84;59.11;98052.72;1671415;83;21931;-64
2022/06/22 00:55:32;;;;;;;1.77;0.70;;;;;;;14.76;59.20;98053.38;1683276;83;21566;-63
2022/06/22 00:58:17;;;;;;;0.57;0.40;;;;;;;14.70;59.63;98050.44;1677601;83;21535;-64
2022/06/22 01:01:01;;;;;;;0.40;0.40;;;;;;;14.68;60.06;98047.91;1673395;83;21457;-65
2022/06/22 01:03:44;;;;;;;1.02;0.53;;;;;;;14.70;60.38;98038.53;1681355;83;21108;-62
2022/06/22 01:06:21;;;;;;;2.02;0.60;;;;;;;14.76;60.10;98041.97;1679325;83;21838;-63
2022/06/22 01:08:56;;;;;;;0.98;0.68;;;;;;;14.69;60.19;98036.84;1679445;83;21516;-64
2022/06/22 01:14:36;;;;;;;3.85;1.32;;;;;;;14.62;60.50;98029.93;1671176;83;21623;-63
2022/06/22 01:17:03;;;;;;;;;;;;;;;14.58;60.70;98029.84;1688858;83;21460;-63
2022/06/22 01:20:10;;;;;;;3.37;0.60;;;;;;;14.52;60.88;98033.81;1668303;83;21918;-63
2022/06/22 01:23:12;;;;;;;0.60;0.60;;;;;;;14.45;61.22;98033.97;1661827;83;21515;-63
2022/06/22 01:26:07;;;;;;;0.47;0.47;;;;;;;14.46;61.42;98011.83;1681928;83;21507;-65
2022/06/22 01:28:33;;;;;;;1.75;0.60;;;;;;;14.52;61.33;98012.66;1673122;83;21433;-64
2022/06/22 01:31:06;;;;;;;0.98;0.68;;;;;;;14.45;61.42;98011.50;1681729;83;21496;-64
2022/06/22 01:33:39;;;;;;;1.95;0.70;;;;;;;14.46;61.35;98009.19;1665840;83;21816;-64
2022/06/22 01:36:15;;;;;;;1.80;0.90;;;;;;;14.43;61.46;98015.22;1680637;83;21558;-64
2022/06/22 01:38:42;;;;;;;0.65;0.50;;;;;;;14.40;61.61;98018.48;1676105;83;21512;-64
2022/06/22 01:41:40;;;;;;;1.98;0.70;;;;;;;14.36;62.08;98010.45;1674458;83;21760;-63
2022/06/22 01:44:18;;;;;;;5.50;0.88;;;;;;;14.42;62.38;98011.74;1670717;83;21117;-63
2022/06/22 01:47:15;;;;;;;1.60;0.68;;;;;;;14.47;62.41;98006.91;1685490;83;21836;-63
2022/06/22 01:50:12;;;;;;;1.37;0.60;;;;;;;14.47;62.79;98008.73;1671779;83;21488;-63
2022/06/22 01:53:12;;;;;;;1.45;0.62;;;;;;;14.37;63.09;98010.83;1675961;83;21548;-64
2022/06/22 01:55:48;;;;;;;2.15;0.62;;;;;;;14.29;63.57;98009.29;1672265;83;21472;-64
2022/06/22 01:58:23;;;;;;;1.07;0.70;;;;;;;14.33;64.00;98009.38;1685185;83;21563;-63
2022/06/22 02:00:55;;;;;;;0.88;0.60;;;;;;;14.44;64.05;98007.66;1681021;83;21785;-63
2022/06/22 02:03:39;;;;;;;1.32;0.70;;;;;;;14.44;64.14;98006.33;1678206;83;21497;-63
2022/06/22 02:09:05;;;;;;;0.93;0.60;;;;;;;14.48;64.00;97998.48;1681525;83;21054;-63
2022/06/22 02:11:36;;;;;;;1.57;0.57;;;;;;;14.50;63.99;98005.31;1668867;83;21595;-63
2022/06/22 02:14:22;;;;;;;0.88;0.50;;;;;;;14.55;64.32;98012.37;1679070;83;21444;-63
2022/06/22 02:16:53;;;;;;;2.27;0.62;;;;;;;14.66;64.43;98014.14;1671094;83;21650;-64
2022/06/22 02:19:21;;;;;;;1.17;0.55;;;;;;;14.74;64.28;98010.34;1680330;83;21424;-64
2022/06/22 02:21:54;;;;;;;1.85;0.70;;;;;;;14.71;64.38;98009.31;1669716;83;21576;-64
2022/06/22 02:24:30;;;;;;;0.55;0.50;;;;;;;14.73;64.53;98003.41;1685180;83;21457;-65
2022/06/22 02:27:08;;;;;;;0.47;0.47;;;;;;;14.77;64.52;98003.98;1677426;83;21747;-63
2022/06/22 02:29:41;;;;;;;1.27;0.60;;;;;;;14.85;64.67;98003.31;1671159;83;21023;-64
2022/06/22 02:32:12;;;;;;;0.53;0.53;;;;;;;14.98;64.83;98003.42;1676710;83;21520;-64
2022/06/22 02:34:41;;;;;;;0.98;0.57;;;;;;;15.00;64.71;98000.66;1672851;83;21587;-65
2022/06/22 02:37:08;;;;;;;1.22;0.65;;;;;;;14.96;64.69;97997.44;1676802;83;21075;-64
2022/06/22 02:39:42;;;;;;;1.70;0.60;;;;;;;14.97;64.85;97995.62;1684674;83;22143;-64
2022/06/22 02:44:54;;;;;;;1.90;0.65;;;;;;;15.05;65.10;97997.59;1681304;83;21544;-64
2022/06/22 02:47:29;;;;;;;3.40;0.68;;;;;;;15.12;65.13;97994.27;1677400;84;21445;-63
2022/06/22 02:50:09;;;;;;;2.55;0.78;;;;;;;15.14;65.28;97993.68;1683940;83;21038;-63
2022/06/22 02:52:39;;;;;;;0.65;0.50;;;;;;;15.11;65.30;98003.20;1678433;83;22018;-64
2022/06/22 02:55:11;;;;;;;3.17;0.60;;;;;;;15.08;65.19;97992.88;1681454;84;22170;-63
2022/06/22 02:57:56;;;;;;;1.75;0.70;;;;;;;15.05;65.25;98001.09;1667399;83;21459;-63
2022/06/22 03:00:30;;;;;;;1.65;0.68;;;;;;;15.08;65.61;98010.08;1683355;82;21524;-63
2022/06/22 03:03:10;;;;;;;2.47;0.90;;;;;;;15.22;65.59;98008.02;1685803;82;21577;-64
2022/06/22 03:05:37;;;;;;;1.75;0.60;;;;;;;15.28;65.26;98006.19;1673130;83;22106;-63
2022/06/22 03:08:04;;;;;;;0.80;0.60;;;;;;;15.30;65.16;98009.53;1682062;83;21616;-63
2022/06/22 03:11:03;;;;;;;0.50;0.50;;;;;;;15.30;65.24;97999.77;1675033;83;21546;-63
2022/06/22 03:13:46;;;;;;;0.50;0.50;;;;;;;15.35;64.72;98000.20;1668960;83;21475;-63
2022/06/22 03:16:33;;;;;;;2.17;0.50;;;;;;;15.39;64.59;97996.80;1676469;83;21470;-63
2022/06/22 03:19:04;;;;;;;0.45;0.45;;;;;;;15.47;64.75;98000.92;1678737;83;21943;-63
2022/06/22 03:21:31;;;;;;;0.93;0.60;;;;;;;15.55;64.59;98001.06;1682736;83;21485;-64
2022/06/22 03:24:24;;;;;;;2.33;0.63;;;;;;;15.57;64.36;97995.64;1676113;83;21039;-64
2022/06/22 03:26:59;;;;;;;0.50;0.50;;;;;;;15.54;64.26;98002.05;1671040;83;21557;-64
2022/06/22 03:29:34;;;;;;;0.50;0.50;;;;;;;15.55;64.21;97998.91;1671207;83;21557;-63
2022/06/22 03:32:12;;;;;;;0.37;0.37;;;;;;;15.52;64.17;98000.03;1685492;83;21744;-63
2022/06/22 03:34:42;;;;;;;1.15;0.60;;;;;;;15.53;64.16;97996.89;1681335;83;21045;-63
2022/06/22 03:37:23;;;;;;;1.00;0.53;;;;;;;15.54;64.30;98006.53;1672663;83;21581;-63
2022/06/22 03:39:55;;;;;;;1.42;0.62;;;;;;;15.62;64.54;98005.34;1679908;84;21461;-64
2022/06/22 03:42:32;;;;;;;0.60;0.60;;;;;;;15.70;64.33;98007.30;1688174;83;21067;-64
2022/06/22 03:45:15;;;;;;;0.72;0.45;;;;;;;15.75;64.01;98011.24;1676914;83;22113;-64
2022/06/22 03:47:56;;;;;;;0.60;0.50;;;;;;;15.76;64.04;98009.42;1656217;83;21523;-65
2022/06/22 03:50:42;;;;;;;1.50;0.50;;;;;;;15.77;63.69;98013.76;1678411;84;21565;-64
2022/06/22 03:53:20;;;;;;;1.35;0.75;;;;;;;15.78;63.66;98014.09;1665064;83;21668;-64
2022/06/22 03:55:50;;;;;;;1.85;0.60;;;;;;;15.80;63.93;98012.14;1676341;83;21461;-64
2022/06/22 03:58:20;;;;;;;0.95;0.60;;;;;;;15.82;63.94;98011.51;1683278;83;21412;-64
2022/06/22 04:00:46;;;;;;;1.35;0.60;;;;;;;15.84;64.21;98014.02;1681311;83;21527;-65
2022/06/22 04:03:14;;;;;;;1.35;0.40;;;;;;;15.84;64.10;98015.35;1678628;83;21614;-64
2022/06/22 04:05:51;;;;;;;0.62;0.57;;;;;;;15.86;64.04;98004.98;1673545;83;21562;-64
2022/06/22 04:08:25;;;;;;;0.88;0.47;;;;;;;15.86;63.80;98001.01;1675201;83;21610;-65
2022/06/22 04:11:15;;;;;;;0.57;0.57;;;;;;;15.84;63.82;98002.96;1733918;80;21870;-64
2022/06/22 04:13:49;;;;;;;2.85;0.55;;;;;;;15.85;64.34;97997.99;1682784;83;21570;-64
2022/06/22 04:16:32;;;;;;;1.22;0.50;;;;;;;16.00;64.24;98000.23;1724072;80;21009;-64
2022/06/22 04:19:06;;;;;;;2.70;0.75;;;;;;;16.07;63.63;98004.83;1727770;81;21570;-66
2022/06/22 04:21:40;;;;;;;1.62;0.60;;;;;;;16.16;63.41;98001.81;1717906;81;21483;-64
2022/06/22 04:24:23;;;;;;;1.62;0.60;;;;;;;16.25;63.26;98012.89;1727567;81;21740;-64
2022/06/22 04:27:13;;;;;;;1.52;0.60;;;;;;;16.24;62.81;98007.27;1721253;80;21597;-64
2022/06/22 04:29:47;;;;;;;0.60;0.60;;;;;;;16.20;62.85;98011.64;1677328;83;21517;-63
2022/06/22 04:32:36;;;;;;;1.45;0.60;;;;;;;16.22;63.11;98013.20;1728883;81;21531;-64
2022/06/22 04:35:29;;;;;;;0.62;0.60;;;;;;;16.31;62.89;98012.82;1723747;81;21420;-64
2022/06/22 04:38:10;;;;;;;1.00;0.70;;;;;;;16.39;62.23;98014.77;1715661;81;21958;-69
2022/06/22 04:41:04;;;;;;;0.68;0.60;;;;;;;16.36;62.24;98011.91;1714114;80;21042;-67
2022/06/22 04:43:31;;;;;;;0.93;0.57;;;;;;;16.37;62.10;98014.07;1686617;83;21506;-64
2022/06/22 04:45:58;;;;;;;0.98;0.72;;;;;;;16.40;62.07;98009.81;1716071;82;21018;-64
2022/06/22 04:48:29;;;;;;;1.32;0.60;;;;;;;16.41;61.60;98014.98;1727438;81;21566;-65
2022/06/22 04:51:00;;;;;;;0.53;0.53;;;;;;;16.41;61.39;98015.48;1691308;83;21820;-65
2022/06/22 04:53:40;;;;;;;1.05;0.70;;;;;;;16.48;61.74;98023.19;1716490;81;21585;-65
2022/06/22 04:56:18;;;;;;;1.02;0.60;;;;;;;16.58;61.51;98031.98;1721026;81;21494;-65
2022/06/22 04:58:55;;;;;;;2.70;0.78;;;;;;;16.61;61.53;98040.97;1682656;82;21620;-65
2022/06/22 05:01:37;;;;;;;1.77;0.57;;;;;;;16.67;61.25;98045.73;1693172;84;21052;-63
2022/06/22 05:04:08;;;;;;;1.10;0.80;;;;;;;16.72;60.91;98043.95;1727089;81;21822;-64
2022/06/22 05:07:04;;;;;;;1.15;0.80;;;;;;;16.67;60.69;98042.22;1716842;82;21543;-63
2022/06/22 05:09:44;;;;;;;1.45;0.50;;;;;;;16.66;61.22;98045.37;1724275;81;21420;-61
2022/06/22 05:12:14;;;;;;;1.52;0.88;;;;;;;16.66;61.22;98045.37;1711192;81;21396;-62
2022/06/22 05:14:41;;;;;;;0.65;0.60;;;;;;;16.75;61.14;98043.68;1732104;80;21507;-60
2022/06/22 05:17:27;;;;;;;2.95;0.53;;;;;;;16.80;60.73;98037.92;1728239;82;21602;-61
2022/06/22 05:20:29;;;;;;;0.50;0.50;;;;;;;16.77;60.32;98038.23;1735114;80;21833;-61
2022/06/22 05:22:59;;;;;;;2.05;0.70;;;;;;;16.62;60.12;98033.87;1720104;81;21494;-62
2022/06/22 05:25:25;;;;;;;2.98;0.60;;;;;;;16.48;60.40;98041.77;1723498;81;21452;-62
2022/06/22 05:28:04;;;;;;;0.60;0.60;;;;;;;16.47;60.54;98039.61;1726405;81;21555;-63
2022/06/22 05:30:41;;;;;;;0.93;0.70;;;;;;;16.50;60.79;98042.45;1683841;84;21824;-62
2022/06/22 05:33:11;;;;;;;1.32;0.72;;;;;;;16.58;60.42;98042.60;1730098;81;21527;-61
2022/06/22 05:35:43;;;;;;;0.85;0.70;;;;;;;16.72;60.10;98037.32;1723605;81;21483;-61
2022/06/22 05:38:10;;;;;;;1.10;0.50;;;;;;;16.88;59.75;98036.27;1713294;81;21492;-62
2022/06/22 05:40:39;;;;;;;2.02;0.80;;;;;;;16.97;58.87;98028.41;1713540;80;21619;-61
2022/06/22 05:43:07;;;;;;;1.42;0.70;;;;;;;17.01;58.51;98026.66;1664465;83;21787;-62
2022/06/22 05:45:40;;;;;;;0.62;0.62;;;;;;;17.12;58.12;98026.94;1732863;80;21479;-61
2022/06/22 05:48:12;;;;;;;0.70;0.70;;;;;;;17.11;58.04;98025.28;1732533;80;21549;-63
2022/06/22 05:50:43;;;;;;;1.07;0.60;;;;;;;17.07;57.58;98015.95;1725516;80;20986;-61
2022/06/22 05:53:33;;;;;;;0.70;0.60;;;;;;;17.05;57.66;98016.59;1697950;83;21529;-61
2022/06/22 05:56:05;;;;;;;1.02;0.60;;;;;;;17.07;57.80;98022.58;1696353;83;21812;-62
2022/06/22 05:58:57;;;;;;;4.00;0.72;;;;;;;17.10;58.26;98019.14;1735212;80;21590;-61
2022/06/22 06:01:49;;;;;;;0.88;0.57;;;;;;;17.07;58.59;98015.45;1692132;83;21554;-61
2022/06/22 06:04:44;;;;;;;0.50;0.50;;;;;;;17.16;59.05;98026.16;1728484;80;21475;-62
2022/06/22 06:07:33;;;;;;;2.25;1.05;;;;;;;17.30;58.52;98025.18;1695204;82;21458;-61
2022/06/22 06:10:02;;;;;;;0.88;0.50;;;;;;;17.30;58.73;98033.14;1693906;83;21742;-62
2022/06/22 06:12:34;;;;;;;0.70;0.70;;;;;;;17.25;58.12;98036.76;1714845;80;21463;-60
2022/06/22 06:15:02;;;;;;;1.12;0.70;;;;;;;17.23;57.97;98035.22;1666605;83;21434;-64
2022/06/22 06:17:37;;;;;;;0.72;0.50;;;;;;;17.20;58.29;98035.03;1701039;83;21537;-61
2022/06/22 06:20:06;;;;;;;0.55;0.50;;;;;;;17.23;58.25;98035.22;1682388;83;21149;-61
2022/06/22 06:22:35;;;;;;;0.65;0.65;;;;;;;17.24;58.24;98036.40;1679895;83;21788;-62
2022/06/22 06:28:02;;;;;;;0.80;0.80;;;;;;;17.27;58.20;98047.21;1674125;82;21538;-62
2022/06/22 06:30:50;;;;;;;0.70;0.62;;;;;;;17.31;58.08;98045.95;1696749;82;20993;-62
2022/06/22 06:33:36;;;;;;;3.22;0.90;;;;;;;17.42;57.73;98037.80;1667354;84;21005;-62
2022/06/22 06:36:21;;;;;;;0.75;0.72;;;;;;;17.51;57.47;98037.38;1649741;86;21928;-61
2022/06/22 06:39:04;;;;;;;2.35;0.82;;;;;;;17.56;57.74;98034.29;1674671;84;21578;-61
2022/06/22 06:41:41;;;;;;;1.75;0.80;;;;;;;17.59;57.21;98037.95;1670921;85;21458;-61
2022/06/22 06:44:22;;;;;;;0.40;0.37;;;;;;;17.53;56.79;98047.36;1706859;83;21448;-61
2022/06/22 06:46:51;;;;;;;1.75;0.60;;;;;;;17.51;55.77;98048.00;1671584;83;20997;-60
2022/06/22 06:49:38;;;;;;;2.37;0.70;;;;;;;17.48;55.61;98046.49;1665291;85;21489;-58
2022/06/22 06:52:20;;;;;;;1.00;0.75;;;;;;;17.42;55.35;98048.89;1671013;84;21537;-59
2022/06/22 06:54:52;;;;;;;2.33;0.65;;;;;;;17.39;55.67;98055.34;1671137;84;21507;-58
2022/06/22 06:57:20;;;;;;;0.60;0.60;;;;;;;17.37;55.90;98055.98;1679946;84;21496;-59
2022/06/22 06:59:50;;;;;;;1.02;0.60;;;;;;;17.41;56.35;98056.03;1677516;84;21553;-60
2022/06/22 07:02:32;;;;;;;2.20;0.60;;;;;;;17.50;56.47;98061.79;1677522;84;21555;-59
2022/06/22 07:05:00;;;;;;;1.45;0.78;;;;;;;17.63;56.55;98065.43;1679499;84;21129;-58
2022/06/22 07:07:51;;;;;;;0.60;0.60;;;;;;;17.77;57.11;98067.23;1679125;84;21574;-61
2022/06/22 07:13:24;;;;;;;0.68;0.65;;;;;;;18.12;55.72;98060.29;1826492;76;23377;-58
2022/06/22 07:15:55;;;;;;;1.30;0.68;;;;;;;18.09;54.92;98058.78;1787945;78;21056;-60
2022/06/22 07:18:35;;;;;;;1.92;0.60;;;;;;;18.06;55.18;98059.93;1793684;77;22476;-61
2022/06/22 07:21:10;;;;;;;2.47;0.78;;;;;;;18.25;54.97;98058.08;1801058;78;20957;-61
2022/06/22 07:23:52;;;;;;;1.02;0.80;;;;;;;18.40;54.59;98053.05;1803062;78;21553;-62
2022/06/22 07:26:51;;;;;;;2.50;0.90;;;;;;;18.52;54.28;98047.84;1796171;78;21652;-62
2022/06/22 07:29:44;;;;;;;0.90;0.78;;;;;;;18.71;53.95;98054.80;1801579;78;21410;-61
2022/06/22 07:32:40;;;;;;;2.72;0.65;;;;;;;18.92;53.48;98049.63;1800970;78;21813;-61
2022/06/22 07:35:42;;;;;;;1.35;0.95;;;;;;;19.14;53.11;98055.75;1804534;78;21029;-61
2022/06/22 07:38:42;;;;;;;1.57;0.68;;;;;;;19.17;52.35;98052.74;1783967;78;21501;-60
2022/06/22 07:41:22;;;;;;;2.30;0.82;;;;;;;19.11;52.31;98053.89;1802894;78;21548;-66
2022/06/22 07:44:01;;;;;;;2.17;0.78;;;;;;;19.13;52.50;98058.06;1797639;78;21450;-62
2022/06/22 07:46:43;;;;;;;0.70;0.45;;;;;;;19.09;51.17;98055.88;1789068;78;22098;-61
2022/06/22 07:49:51;;;;;;;0.78;0.70;;;;;;;19.10;51.06;98056.20;1797903;78;21501;-59
2022/06/22 07:52:23;;;;;;;2.50;0.40;;;;;;;19.10;50.46;98060.20;1786700;78;21067;-60
2022/06/22 07:55:00;;;;;;;1.15;0.57;;;;;;;19.14;50.51;98059.74;1796608;78;21599;-61
2022/06/22 07:57:41;;;;;;;0.78;0.70;;;;;;;19.20;50.23;98064.93;1788969;78;21042;-59
2022/06/22 08:00:15;;;;;;;1.22;0.60;;;;;;;19.24;50.15;98059.62;1799642;78;21899;-60
2022/06/22 08:03:07;;;;;;;1.40;0.70;;;;;;;19.37;49.63;98073.33;1796514;78;21507;-60
2022/06/22 08:05:39;;;;;;;1.00;0.57;;;;;;;19.45;49.89;98064.53;1786616;78;21600;-58
2022/06/22 08:08:32;;;;;;;1.92;0.70;;;;;;;19.56;49.20;98071.41;1789831;78;22064;-59
2022/06/22 08:11:13;;;;;;;1.50;0.68;;;;;;;19.60;48.81;98066.92;1674897;83;21060;-60
2022/06/22 08:13:48;;;;;;;0.72;0.60;;;;;;;19.67;48.93;98075.13;1674147;83;21858;-61
2022/06/22 08:16:24;;;;;;;2.05;0.70;;;;;;;19.71;48.54;98071.63;1679781;83;21509;-62
2022/06/22 08:18:51;;;;;;;2.60;0.53;;;;;;;19.75;48.43;98068.50;1661694;83;21577;-62
2022/06/22 08:21:18;;;;;;;1.12;0.78;;;;;;;19.76;47.68;98067.52;1683501;83;21494;-61
2022/06/22 08:23:44;;;;;;;0.70;0.60;;;;;;;19.80;48.32;98073.36;1668131;84;21493;-61
2022/06/22 08:26:20;;;;;;;3.22;0.80;;;;;;;19.91;47.99;98066.86;1669348;85;21778;-60
2022/06/22 08:28:47;;;;;;;0.72;0.70;;;;;;;20.13;47.96;98070.75;1670995;84;21603;-61
2022/06/22 08:31:14;;;;;;;1.13;0.87;;;;;;;20.26;47.77;98066.27;1645770;85;21526;-61
2022/06/22 08:33:58;;;;;;;0.60;0.60;;;;;;;20.31;47.58;98073.28;1665269;85;21549;-61
2022/06/22 08:36:46;;;;;;;3.27;0.70;;;;;;;20.28;47.78;98071.76;1672537;84;21507;-60
2022/06/22 08:39:22;;;;;;;1.12;0.80;;;;;;;20.30;47.81;98071.09;1660542;84;21874;-60
2022/06/22 08:42:19;;;;;;;3.02;0.80;;;;;;;20.25;47.17;98077.45;1662114;85;21000;-61
2022/06/22 08:45:09;;;;;;;0.90;0.90;;;;;;;20.30;47.41;98081.77;1673841;84;21469;-61
2022/06/22 08:47:54;;;;;;;0.70;0.70;;;;;;;20.28;47.25;98082.94;1673837;84;21639;-60
2022/06/22 08:51:00;;;;;;;4.10;0.90;;;;;;;20.21;47.08;98086.28;1667855;85;21410;-61
2022/06/22 08:53:57;;;;;;;2.65;0.80;;;;;;;20.32;48.04;98086.44;1668109;85;21799;-60
2022/06/22 08:57:02;;;;;;;1.70;0.80;;;;;;;20.59;46.96;98083.13;1667015;85;25698;-62
2022/06/22 09:00:23;;;;;;;1.47;0.80;;;;;;;20.72;46.21;98091.50;1668781;83;21537;-61
2022/06/22 09:02:58;;;;;;;1.20;0.70;;;;;;;20.80;45.73;98082.64;1674094;85;21675;-61
2022/06/22 09:05:37;;;;;;;2.22;0.70;;;;;;;20.87;45.35;98088.98;1671451;85;21501;-60
2022/06/22 09:08:46;;;;;;;3.60;0.90;;;;;;;20.87;44.97;98091.66;1658870;83;21879;-61
2022/06/22 09:11:57;;;;;;;0.72;0.70;;;;;;;20.78;44.86;98083.31;1672176;83;21501;-60
2022/06/22 09:14:41;;;;;;;1.02;0.88;;;;;;;20.76;45.13;98087.48;1672486;84;21513;-61
2022/06/22 09:17:28;;;;;;;3.67;0.95;;;;;;;20.78;45.41;98086.81;1659362;85;21565;-60
2022/06/22 09:20:33;;;;;;;1.17;0.78;;;;;;;20.78;45.62;98085.47;1671343;83;21583;-62
2022/06/22 09:23:37;;;;;;;2.58;0.90;;;;;;;20.71;45.69;98084.98;1643207;85;21541;-60
2022/06/22 09:26:10;;;;;;;4.25;1.00;;;;;;;20.82;45.08;98093.16;1654038;85;21608;-60
2022/06/22 09:29:04;;;;;;;1.17;0.78;;;;;;;20.74;44.90;98086.82;1665206;84;20997;-62
2022/06/22 09:31:59;;;;;;;1.85;0.80;;;;;;;20.80;44.53;98082.13;1636138;84;21502;-65
2022/06/22 09:35:01;;;;;;;3.22;0.70;;;;;;;20.87;44.79;98092.12;1654220;85;21002;-63
2022/06/22 09:37:53;;;;;;;2.12;0.80;;;;;;;20.75;44.96;98091.14;1615743;85;22321;-62
2022/06/22 09:41:08;;;;;;;1.25;0.82;;;;;;;20.65;45.38;98095.83;1686876;82;21441;-63
2022/06/22 09:44:09;;;;;;;2.40;0.60;;;;;;;20.58;45.82;98104.14;1663911;83;21502;-60
2022/06/22 09:46:54;;;;;;;1.05;0.82;;;;;;;20.54;46.86;98115.65;1668438;83;21579;-62
2022/06/22 09:49:32;;;;;;;1.85;0.85;;;;;;;20.41;49.46;98120.14;1666312;83;21424;-62
2022/06/22 09:52:45;;;;;;;1.52;1.12;;;;;;;20.19;51.50;98122.97;1669729;83;21848;-61
2022/06/22 09:58:55;;;;;;;;;;;;;;;20.05;54.89;98119.59;1674753;83;21454;-62
2022/06/22 10:01:53;;;;;;;1.02;0.93;;;;;;;20.20;57.13;98129.13;1694053;83;20267;-63
2022/06/22 10:04:48;;;;;;;3.20;0.88;;;;;;;20.36;55.45;98118.97;1669034;83;21472;-62
2022/06/22 10:07:35;;;;;;;5.50;1.10;;;;;;;20.45;55.43;98117.98;1671047;83;21786;-61
2022/06/22 10:10:23;;;;;;;2.52;1.10;;;;;;;20.70;55.73;98114.01;1672394;83;21512;-60
2022/06/22 10:13:27;;;;;;;1.47;0.82;;;;;;;20.99;54.04;98107.64;1677598;83;21531;-61
2022/06/22 10:16:30;;;;;;;1.42;1.10;;;;;;;21.27;53.00;98110.45;1667989;83;21059;-60
2022/06/22 10:19:23;;;;;;;3.05;0.98;;;;;;;21.54;51.33;98107.87;1670469;83;21598;-60
2022/06/22 10:21:58;;;;;;;1.12;0.95;;;;;;;22.08;49.79;98096.41;1676084;83;21903;-60
2022/06/22 10:24:56;;;;;;;1.98;1.10;;;;;;;22.08;49.79;98096.41;1666156;83;21468;-62
2022/06/22 10:27:49;;;;;;;1.87;1.00;;;;;;;22.19;49.01;98103.18;1678397;83;21437;-60
2022/06/22 10:31:01;;;;;;;3.83;0.80;;;;;;;22.21;48.77;98103.35;1662901;83;21474;-60
2022/06/22 10:33:53;;;;;;;2.80;0.90;;;;;;;22.07;48.20;98112.95;1664162;84;21622;-61
2022/06/22 10:36:31;;;;;;;1.17;0.90;;;;;;;21.88;48.17;98110.22;1671050;83;21826;-62
2022/06/22 10:39:09;;;;;;;0.88;0.80;;;;;;;21.90;48.50;98117.56;1669330;82;21532;-61
2022/06/22 10:45:08;;;;;;;5.55;2.83;;;;;;;22.30;47.05;98111.69;1640584;85;21535;-62
2022/06/22 10:48:03;;;;;;;2.50;2.15;;;;;;;22.33;45.32;98113.99;1640901;85;21688;-60
2022/06/22 10:51:04;;;;;;;3.05;1.90;;;;;;;22.22;45.38;98117.05;1644123;86;21818;-59
2022/06/22 10:54:13;;;;;;;1.52;1.32;;;;;;;22.04;44.97;98114.66;1641960;86;21565;-61
2022/06/22 10:57:05;;;;;;;4.87;1.52;;;;;;;21.94;45.23;98122.06;1639893;86;21443;-60
2022/06/22 11:00:03;;;;;;;6.75;1.60;;;;;;;21.71;46.45;98138.88;1642027;86;21066;-63
2022/06/22 11:02:55;;;;;;;1.17;1.15;;;;;;;21.45;47.63;98155.69;1643879;85;21597;-61
2022/06/22 11:06:03;;;;;;;8.13;1.40;;;;;;;21.12;46.43;98159.23;1644999;85;21843;-61
2022/06/22 11:09:03;;;;;;;3.45;0.90;;;;;;;20.57;50.49;98178.58;1642422;85;21581;-60
2022/06/22 11:11:41;;;;;;;4.90;0.72;;;;;;;20.02;51.50;98178.11;1645210;85;21029;-62
2022/06/22 11:14:47;;;;;;;4.47;1.07;;;;;;;19.51;53.93;98185.67;1643780;86;21514;-61
2022/06/22 11:17:48;;;;;;;1.52;0.95;;;;;;;19.51;53.93;98185.67;1645009;86;21581;-62
2022/06/22 11:20:42;;;;;;;1.35;1.15;;;;;;;19.53;55.59;98189.01;1642722;86;21590;-61
2022/06/22 11:23:14;;;;;;;0.90;0.90;;;;;;;19.70;56.49;98185.42;1644464;85;21581;-62
2022/06/22 11:32:11;;;;;;;1.65;1.20;;;;;;;20.51;54.41;98180.08;1583233;88;21540;-62
2022/06/22 11:35:22;;;;;;;1.95;0.95;;;;;;;20.79;54.15;98180.64;1636600;85;21611;-62
2022/06/22 11:38:22;;;;;;;1.22;1.10;;;;;;;21.08;53.70;98177.09;1636929;85;21577;-62
2022/06/22 11:41:18;;;;;;;1.90;0.80;;;;;;;21.33;52.51;98172.56;1642790;86;20966;-61
2022/06/22 11:43:59;;;;;;;1.80;1.10;;;;;;;21.47;50.68;98171.05;1641878;85;21569;-61
2022/06/22 11:46:40;;;;;;;1.22;1.00;;;;;;;21.66;51.04;98172.50;1637951;85;21581;-61
2022/06/22 11:49:24;;;;;;;4.37;1.10;;;;;;;21.90;48.83;98167.05;1643286;85;21592;-61
2022/06/22 11:52:19;;;;;;;1.60;0.82;;;;;;;22.10;48.39;98158.63;1643966;85;21625;-61
2022/06/22 11:55:21;;;;;;;1.07;0.93;;;;;;;22.31;46.92;98163.38;1638976;85;21578;-64
2022/06/22 11:58:51;;;;;;;2.75;1.07;;;;;;;21.80;46.92;98165.62;1769926;78;22962;-60
2022/06/22 12:01:44;;;;;;;1.90;0.60;;;;;;;22.24;44.32;98155.69;1738694;80;21463;-61
2022/06/22 12:04:31;;;;;;;1.12;0.95;;;;;;;22.46;44.39;98152.75;1690622;83;21494;-62
2022/06/22 12:07:20;;;;;;;2.58;1.00;;;;;;;22.66;43.97;98164.66;1697288;81;21533;-59
2022/06/22 12:09:56;;;;;;;2.37;0.90;;;;;;;22.80;43.09;98159.52;1709851;81;20965;-60
2022/06/22 12:12:51;;;;;;;3.50;0.70;;;;;;;22.92;42.32;98158.92;1705762;81;21525;-60
2022/06/22 12:15:48;;;;;;;0.85;0.85;;;;;;;23.03;42.54;98159.48;1694895;82;20967;-60
2022/06/22 12:18:50;;;;;;;3.70;0.70;;;;;;;23.16;41.38;98159.73;1687873;83;21495;-60
2022/06/22 12:21:46;;;;;;;0.95;0.60;;;;;;;23.18;40.53;98155.02;1692724;83;21463;-61
2022/06/22 12:24:39;;;;;;;0.85;0.70;;;;;;;23.18;40.53;98155.02;1696693;82;21570;-61
2022/06/22 12:27:32;;;;;;;0.60;0.60;;;;;;;22.92;39.96;98164.28;1688667;82;20963;-64
2022/06/22 12:30:13;;;;;;;3.80;0.60;;;;;;;22.55;41.03;98168.58;1687439;82;21066;-66
2022/06/22 12:33:10;;;;;;;2.05;1.07;;;;;;;22.04;42.71;98185.58;1701882;81;21616;-62
2022/06/22 12:35:58;;;;;;;1.45;0.80;;;;;;;22.04;42.71;98185.58;1700593;82;21588;-62
2022/06/22 12:38:41;;;;;;;2.27;0.60;;;;;;;21.89;43.72;98207.39;1690424;83;21547;-61
2022/06/22 12:41:49;;;;;;;0.53;0.50;;;;;;;21.17;42.33;98200.14;1682802;81;21597;-65
2022/06/22 12:44:56;;;;;;;2.83;0.60;;;;;;;21.17;42.33;98200.14;1701614;81;21676;-65
2022/06/22 12:48:03;;;;;;;3.00;0.55;;;;;;;21.00;43.37;98200.64;1681396;83;21837;-62
2022/06/22 12:50:52;;;;;;;2.77;0.80;;;;;;;20.91;43.21;98205.17;1691941;84;21121;-62
2022/06/22 12:53:54;;;;;;;1.20;0.70;;;;;;;20.89;43.98;98207.17;1684842;83;21456;-62
2022/06/22 12:56:36;;;;;;;2.72;1.00;;;;;;;20.89;43.98;98207.17;1687708;82;21557;-65
2022/06/22 12:59:25;;;;;;;1.22;0.75;;;;;;;21.12;44.00;98210.52;1688094;82;21097;-62
2022/06/22 13:01:53;;;;;;;0.80;0.80;;;;;;;21.37;44.25;98201.45;1702747;82;21797;-61
2022/06/22 13:04:26;;;;;;;0.97;0.70;;;;;;;21.52;42.95;98194.94;1700083;82;21462;-60
2022/06/22 13:07:16;;;;;;;5.28;1.00;;;;;;;21.46;43.46;98196.97;1704524;82;21513;-63
2022/06/22 13:09:43;;;;;;;0.80;0.80;;;;;;;21.34;44.25;98201.81;1700696;82;21423;-63
2022/06/22 13:12:39;;;;;;;1.40;0.80;;;;;;;21.22;44.94;98200.98;1705916;82;21022;-63
2022/06/22 13:15:14;;;;;;;0.80;0.80;;;;;;;21.24;45.73;98204.31;1701222;83;21820;-61